Portsmouth, VA (23701)

4:18 AM EST on March 01, 2015 (GMT -0500)
West Cradock | Change Station
CLOSE
Current Station
Personal Weather Station
Location: Portsmouth, VA
Elevation: 13 ft
Nearby Weather Stations

Elev 13 ft 36.80 °N, 76.33 °W | Updated 6 seconds ago

Partly Cloudy
Partly Cloudy
28.8 °F
Feels Like 24 °F
N
4.0
Wind Variable Wind from NW
Gusts 9.0 mph

Today
High -- | Low -- °F
--% Chance of Precip.
Yesterday
High -- | Low -- °F
Precip. -- in
6:36 AM 5:59 PM
Waxing Gibbous, 84% visible
Pressure 30.66 in
Visibility 10.0 miles
Clouds Overcast 5000 ft
Windchill 24 °F
Dew Point 25 °F
Humidity 85%
Rainfall 0.00 in
Snow Depth Not available.
UV 0 out of 12
Pollen 4.60 out of 12
Air Quality Not available.
Flu Activity Not available.
METAR KPVG 010855Z AUTO 03003KT 10SM OVC050 M04/M06 A3066 RMK AO1 57024

More Conditions Fewer Conditions

Pressure 30.66 in
Visibility 10.0 miles
Clouds Overcast 5000 ft
Windchill 24 °F
Dew Point 25 °F
Humidity 85%
Rainfall 0.00 in
Snow Depth Not available.
UV 0 out of 12
Pollen 4.60 out of 12
Air Quality Not available.
Flu Activity Not available.
METAR KPVG 010855Z AUTO 03003KT 10SM OVC050 M04/M06 A3066 RMK AO1 57024

More Conditions Fewer Conditions

10-Day Weather Forecast

Almanac

Astronomy

Mar. 01, 2015 Rise Set
Actual Time
Civil Twilight
Nautical Twilight
Astronomical Twilight
Moon
Length of Visible Light
Length of Day
Tomorrow will be .
, % of the Moon is Illuminated

Today's Extremes

State Highs State Lows

Community

WunderPhotos

Upload Photos

1,801,350 photos uploaded!

WunderBlogs® & News

Nearby

Air Quality

  Air Quality AQ Index Pollutant
Not available.

Snow Depth

Station Depth Elevation

Earthquake Activity

City Distance Mag. Time & Date
Minimum magnitude displayed is 2.5.

Coastal Water Temperatures

Place Temperature

Nearby Weather Stations